sensor_id;sensor_type;location;lat;lon;timestamp;pressure;altitude;pressure_sealevel;temperature;humidity
9187;BME280;7273;48.902;9.410;2023-12-22T00:00:13;96707.28;;;6.52;89.97
9187;BME280;7273;48.902;9.410;2023-12-22T00:02:40;96727.09;;;6.56;90.41
9187;BME280;7273;48.902;9.410;2023-12-22T00:05:06;96680.13;;;6.54;90.26
9187;BME280;7273;48.902;9.410;2023-12-22T00:07:32;96679.09;;;6.50;90.56
9187;BME280;7273;48.902;9.410;2023-12-22T00:09:57;96664.94;;;6.44;90.62
9187;BME280;7273;48.902;9.410;2023-12-22T00:12:23;96675.66;;;6.44;90.64
9187;BME280;7273;48.902;9.410;2023-12-22T00:14:49;96672.47;;;6.42;90.52
9187;BME280;7273;48.902;9.410;2023-12-22T00:17:14;96656.41;;;6.37;90.29
9187;BME280;7273;48.902;9.410;2023-12-22T00:19:40;96661.81;;;6.32;90.45
9187;BME280;7273;48.902;9.410;2023-12-22T00:22:05;96698.59;;;6.32;90.58
9187;BME280;7273;48.902;9.410;2023-12-22T00:24:31;96720.31;;;6.35;90.80
9187;BME280;7273;48.902;9.410;2023-12-22T00:26:56;96703.47;;;6.30;91.24
9187;BME280;7273;48.902;9.410;2023-12-22T00:29:22;96674.75;;;6.25;91.13
9187;BME280;7273;48.902;9.410;2023-12-22T00:31:48;96732.88;;;6.11;91.40
9187;BME280;7273;48.902;9.410;2023-12-22T00:34:13;96744.78;;;6.00;91.20
9187;BME280;7273;48.902;9.410;2023-12-22T00:36:39;96766.25;;;5.95;91.35
9187;BME280;7273;48.902;9.410;2023-12-22T00:39:05;96780.56;;;5.86;91.38
9187;BME280;7273;48.902;9.410;2023-12-22T00:41:31;96805.78;;;5.75;90.99
9187;BME280;7273;48.902;9.410;2023-12-22T00:43:57;96825.91;;;5.72;90.63
9187;BME280;7273;48.902;9.410;2023-12-22T00:46:22;96818.69;;;5.73;91.33
9187;BME280;7273;48.902;9.410;2023-12-22T00:48:48;96831.28;;;5.67;91.00
9187;BME280;7273;48.902;9.410;2023-12-22T00:51:14;96824.63;;;5.65;91.28
9187;BME280;7273;48.902;9.410;2023-12-22T00:53:41;96812.81;;;5.61;91.21
9187;BME280;7273;48.902;9.410;2023-12-22T00:56:07;96813.13;;;5.54;91.30
9187;BME280;7273;48.902;9.410;2023-12-22T00:58:33;96801.59;;;5.53;91.26
9187;BME280;7273;48.902;9.410;2023-12-22T01:00:59;96801.34;;;5.50;91.42
9187;BME280;7273;48.902;9.410;2023-12-22T01:03:24;96794.66;;;5.47;91.35
9187;BME280;7273;48.902;9.410;2023-12-22T01:05:50;96800.84;;;5.43;91.49
9187;BME280;7273;48.902;9.410;2023-12-22T01:08:15;96789.88;;;5.39;91.54
9187;BME280;7273;48.902;9.410;2023-12-22T01:10:41;96790.94;;;5.38;91.70
9187;BME280;7273;48.902;9.410;2023-12-22T01:13:07;96795.78;;;5.36;91.55
9187;BME280;7273;48.902;9.410;2023-12-22T01:15:33;96773.28;;;5.32;91.19
9187;BME280;7273;48.902;9.410;2023-12-22T01:17:58;96769.78;;;5.32;91.56
9187;BME280;7273;48.902;9.410;2023-12-22T01:20:24;96770.34;;;5.29;91.60
9187;BME280;7273;48.902;9.410;2023-12-22T01:22:50;96770.06;;;5.25;91.42
9187;BME280;7273;48.902;9.410;2023-12-22T01:25:15;96773.56;;;5.26;91.74
9187;BME280;7273;48.902;9.410;2023-12-22T01:27:41;96771.97;;;5.25;91.82
9187;BME280;7273;48.902;9.410;2023-12-22T01:30:07;96767.41;;;5.25;91.65
9187;BME280;7273;48.902;9.410;2023-12-22T01:32:33;96771.69;;;5.26;91.53
9187;BME280;7273;48.902;9.410;2023-12-22T01:35:00;96762.56;;;5.27;91.54
9187;BME280;7273;48.902;9.410;2023-12-22T01:37:29;96762.56;;;5.27;91.96
9187;BME280;7273;48.902;9.410;2023-12-22T01:39:55;96764.19;;;5.28;91.93
9187;BME280;7273;48.902;9.410;2023-12-22T01:42:21;96759.34;;;5.25;92.21
9187;BME280;7273;48.902;9.410;2023-12-22T01:44:46;96769.56;;;5.28;91.93
9187;BME280;7273;48.902;9.410;2023-12-22T01:47:12;96780.00;;;5.30;92.11
9187;BME280;7273;48.902;9.410;2023-12-22T01:49:39;96758.56;;;5.30;91.85
9187;BME280;7273;48.902;9.410;2023-12-22T01:52:04;96777.56;;;5.33;92.20
9187;BME280;7273;48.902;9.410;2023-12-22T01:54:30;96753.97;;;5.35;92.03
9187;BME280;7273;48.902;9.410;2023-12-22T01:56:56;96756.91;;;5.39;92.05
9187;BME280;7273;48.902;9.410;2023-12-22T01:59:22;96778.63;;;5.37;92.17
9187;BME280;7273;48.902;9.410;2023-12-22T02:01:49;96787.44;;;5.43;92.39
9187;BME280;7273;48.902;9.410;2023-12-22T02:04:15;96762.78;;;5.46;92.39
9187;BME280;7273;48.902;9.410;2023-12-22T02:06:41;96765.19;;;5.42;92.51
9187;BME280;7273;48.902;9.410;2023-12-22T02:09:07;96748.84;;;5.39;92.58
9187;BME280;7273;48.902;9.410;2023-12-22T02:11:33;96766.56;;;5.40;92.76
9187;BME280;7273;48.902;9.410;2023-12-22T02:13:59;96752.31;;;5.44;93.05
9187;BME280;7273;48.902;9.410;2023-12-22T02:16:45;96770.78;;;5.51;92.98
9187;BME280;7273;48.902;9.410;2023-12-22T02:19:29;96758.66;;;5.64;95.23
9187;BME280;7273;48.902;9.410;2023-12-22T02:22:09;96768.22;;;5.75;96.73
9187;BME280;7273;48.902;9.410;2023-12-22T02:24:35;96758.28;;;5.85;96.88
9187;BME280;7273;48.902;9.410;2023-12-22T02:27:28;96764.91;;;5.98;97.35
9187;BME280;7273;48.902;9.410;2023-12-22T02:30:09;96776.91;;;6.10;96.94
9187;BME280;7273;48.902;9.410;2023-12-22T02:32:40;96773.34;;;6.20;95.16
9187;BME280;7273;48.902;9.410;2023-12-22T02:35:13;96779.19;;;6.27;94.23
9187;BME280;7273;48.902;9.410;2023-12-22T02:37:40;96787.19;;;6.32;92.75
9187;BME280;7273;48.902;9.410;2023-12-22T02:40:07;96783.97;;;6.35;92.44
9187;BME280;7273;48.902;9.410;2023-12-22T02:42:34;96767.56;;;6.36;92.35
9187;BME280;7273;48.902;9.410;2023-12-22T02:45:01;96755.69;;;6.42;90.47
9187;BME280;7273;48.902;9.410;2023-12-22T02:47:26;96760.72;;;6.49;89.01
9187;BME280;7273;48.902;9.410;2023-12-22T02:49:55;96761.25;;;6.51;88.13
9187;BME280;7273;48.902;9.410;2023-12-22T02:52:21;96756.66;;;6.51;88.14
9187;BME280;7273;48.902;9.410;2023-12-22T02:54:46;96773.31;;;6.53;87.99
9187;BME280;7273;48.902;9.410;2023-12-22T02:57:13;96774.66;;;6.56;87.65
9187;BME280;7273;48.902;9.410;2023-12-22T02:59:39;96769.78;;;6.58;87.29
9187;BME280;7273;48.902;9.410;2023-12-22T03:02:04;96781.28;;;6.63;87.05
9187;BME280;7273;48.902;9.410;2023-12-22T03:04:30;96775.91;;;6.63;86.98
9187;BME280;7273;48.902;9.410;2023-12-22T03:06:56;96767.56;;;6.65;86.59
9187;BME280;7273;48.902;9.410;2023-12-22T03:09:21;96764.31;;;6.68;86.71
9187;BME280;7273;48.902;9.410;2023-12-22T03:11:47;96755.19;;;6.69;86.54
9187;BME280;7273;48.902;9.410;2023-12-22T03:14:13;96742.53;;;6.69;86.88
9187;BME280;7273;48.902;9.410;2023-12-22T03:16:39;96734.72;;;6.73;86.50
9187;BME280;7273;48.902;9.410;2023-12-22T03:19:05;96750.00;;;6.77;85.91
9187;BME280;7273;48.902;9.410;2023-12-22T03:21:30;96747.03;;;6.79;86.17
9187;BME280;7273;48.902;9.410;2023-12-22T03:23:55;96749.91;;;6.82;86.16
9187;BME280;7273;48.902;9.410;2023-12-22T03:26:21;96726.56;;;6.83;86.25
9187;BME280;7273;48.902;9.410;2023-12-22T03:28:46;96749.88;;;6.88;85.98
9187;BME280;7273;48.902;9.410;2023-12-22T03:31:11;96744.22;;;6.89;85.98
9187;BME280;7273;48.902;9.410;2023-12-22T03:33:37;96744.72;;;6.91;86.00
9187;BME280;7273;48.902;9.410;2023-12-22T03:36:02;96763.25;;;6.93;86.02
9187;BME280;7273;48.902;9.410;2023-12-22T03:38:28;96786.88;;;6.96;84.96
9187;BME280;7273;48.902;9.410;2023-12-22T03:40:53;96787.91;;;7.00;85.29
9187;BME280;7273;48.902;9.410;2023-12-22T03:43:19;96799.19;;;7.02;84.79
9187;BME280;7273;48.902;9.410;2023-12-22T03:45:44;96791.06;;;7.07;84.02
9187;BME280;7273;48.902;9.410;2023-12-22T03:48:09;96779.75;;;7.10;83.53
9187;BME280;7273;48.902;9.410;2023-12-22T03:50:35;96786.94;;;7.14;82.73
9187;BME280;7273;48.902;9.410;2023-12-22T03:53:00;96791.75;;;7.17;82.56
9187;BME280;7273;48.902;9.410;2023-12-22T03:55:25;96774.50;;;7.23;81.72
9187;BME280;7273;48.902;9.410;2023-12-22T03:57:51;96785.25;;;7.23;81.19
9187;BME280;7273;48.902;9.410;2023-12-22T04:00:16;96785.72;;;7.25;80.53
9187;BME280;7273;48.902;9.410;2023-12-22T04:02:42;96778.19;;;7.27;80.79
9187;BME280;7273;48.902;9.410;2023-12-22T04:05:07;96788.94;;;7.27;80.49
9187;BME280;7273;48.902;9.410;2023-12-22T04:07:35;96781.41;;;7.29;80.88
9187;BME280;7273;48.902;9.410;2023-12-22T04:10:01;96798.84;;;7.32;80.24
9187;BME280;7273;48.902;9.410;2023-12-22T04:12:26;96797.25;;;7.31;80.65
9187;BME280;7273;48.902;9.410;2023-12-22T04:14:51;96808.34;;;7.24;81.30
9187;BME280;7273;48.902;9.410;2023-12-22T04:17:19;96809.97;;;7.20;81.40
9187;BME280;7273;48.902;9.410;2023-12-22T04:19:44;96811.47;;;7.08;82.84
9187;BME280;7273;48.902;9.410;2023-12-22T04:22:09;96817.00;;;6.93;84.83
9187;BME280;7273;48.902;9.410;2023-12-22T04:24:35;96822.75;;;6.81;86.55
9187;BME280;7273;48.902;9.410;2023-12-22T04:27:00;96829.81;;;6.72;87.89
9187;BME280;7273;48.902;9.410;2023-12-22T04:29:25;96821.31;;;6.60;88.66
9187;BME280;7273;48.902;9.410;2023-12-22T04:31:51;96800.44;;;6.52;88.63
9187;BME280;7273;48.902;9.410;2023-12-22T04:34:16;96809.38;;;6.42;89.15
9187;BME280;7273;48.902;9.410;2023-12-22T04:36:42;96825.25;;;6.39;89.52
9187;BME280;7273;48.902;9.410;2023-12-22T04:39:07;96815.69;;;6.28;90.86
9187;BME280;7273;48.902;9.410;2023-12-22T04:41:33;96839.63;;;6.19;91.25
9187;BME280;7273;48.902;9.410;2023-12-22T04:43:58;96862.44;;;6.22;91.45
9187;BME280;7273;48.902;9.410;2023-12-22T04:46:28;96852.78;;;6.16;92.96
9187;BME280;7273;48.902;9.410;2023-12-22T04:48:54;96854.16;;;6.13;92.92
9187;BME280;7273;48.902;9.410;2023-12-22T04:51:19;96857.13;;;6.12;93.74
9187;BME280;7273;48.902;9.410;2023-12-22T04:53:44;96849.06;;;6.12;94.42
9187;BME280;7273;48.902;9.410;2023-12-22T04:56:10;96846.09;;;6.13;95.27
9187;BME280;7273;48.902;9.410;2023-12-22T04:58:35;96836.69;;;6.16;95.27
9187;BME280;7273;48.902;9.410;2023-12-22T05:01:00;96834.53;;;6.18;95.13
9187;BME280;7273;48.902;9.410;2023-12-22T05:03:26;96838.78;;;6.24;94.97
9187;BME280;7273;48.902;9.410;2023-12-22T05:05:51;96842.81;;;6.26;93.82
9187;BME280;7273;48.902;9.410;2023-12-22T05:08:16;96844.13;;;6.29;93.95
9187;BME280;7273;48.902;9.410;2023-12-22T05:10:42;96839.25;;;6.36;93.61
9187;BME280;7273;48.902;9.410;2023-12-22T05:13:07;96842.97;;;6.40;92.86
9187;BME280;7273;48.902;9.410;2023-12-22T05:15:32;96849.66;;;6.42;92.38
9187;BME280;7273;48.902;9.410;2023-12-22T05:17:58;96831.13;;;6.46;91.73
9187;BME280;7273;48.902;9.410;2023-12-22T05:20:23;96829.97;;;6.52;91.16
9187;BME280;7273;48.902;9.410;2023-12-22T05:22:48;96854.94;;;6.57;90.04
9187;BME280;7273;48.902;9.410;2023-12-22T05:25:14;96852.22;;;6.62;89.62
9187;BME280;7273;48.902;9.410;2023-12-22T05:27:40;96847.34;;;6.64;89.38
9187;BME280;7273;48.902;9.410;2023-12-22T05:30:08;96856.19;;;6.65;89.37
9187;BME280;7273;48.902;9.410;2023-12-22T05:32:34;96848.38;;;6.68;89.23
9187;BME280;7273;48.902;9.410;2023-12-22T05:34:59;96845.94;;;6.72;88.89
9187;BME280;7273;48.902;9.410;2023-12-22T05:37:24;96846.75;;;6.72;88.58
9187;BME280;7273;48.902;9.410;2023-12-22T05:39:50;96854.53;;;6.74;88.40
9187;BME280;7273;48.902;9.410;2023-12-22T05:42:15;96858.31;;;6.68;87.85
9187;BME280;7273;48.902;9.410;2023-12-22T05:44:40;96889.16;;;6.75;87.24
9187;BME280;7273;48.902;9.410;2023-12-22T05:47:06;96865.78;;;6.76;87.54
9187;BME280;7273;48.902;9.410;2023-12-22T05:49:31;96862.06;;;6.72;88.74
9187;BME280;7273;48.902;9.410;2023-12-22T05:51:57;96855.34;;;6.69;89.97
9187;BME280;7273;48.902;9.410;2023-12-22T05:54:22;96864.50;;;6.68;89.97
9187;BME280;7273;48.902;9.410;2023-12-22T05:56:48;96853.75;;;6.68;89.99
9187;BME280;7273;48.902;9.410;2023-12-22T05:59:13;96853.19;;;6.71;89.90
9187;BME280;7273;48.902;9.410;2023-12-22T06:01:39;96848.34;;;6.73;89.15
9187;BME280;7273;48.902;9.410;2023-12-22T06:04:04;96852.88;;;6.78;88.49
9187;BME280;7273;48.902;9.410;2023-12-22T06:06:30;96857.97;;;6.79;88.38
9187;BME280;7273;48.902;9.410;2023-12-22T06:08:56;96865.69;;;6.86;87.48
9187;BME280;7273;48.902;9.410;2023-12-22T06:11:21;96878.06;;;6.87;87.40
9187;BME280;7273;48.902;9.410;2023-12-22T06:13:50;96886.41;;;6.86;87.74
9187;BME280;7273;48.902;9.410;2023-12-22T06:16:16;96876.41;;;6.91;87.55
9187;BME280;7273;48.902;9.410;2023-12-22T06:18:43;96900.28;;;6.93;86.57
9187;BME280;7273;48.902;9.410;2023-12-22T06:21:09;96903.50;;;6.95;86.66
9187;BME280;7273;48.902;9.410;2023-12-22T06:23:35;96909.16;;;6.93;87.09
9187;BME280;7273;48.902;9.410;2023-12-22T06:26:01;96906.13;;;7.05;84.55
9187;BME280;7273;48.902;9.410;2023-12-22T06:28:27;96923.28;;;7.09;83.61
9187;BME280;7273;48.902;9.410;2023-12-22T06:30:53;96929.97;;;7.11;83.28
9187;BME280;7273;48.902;9.410;2023-12-22T06:33:19;96936.16;;;7.12;82.94
9187;BME280;7273;48.902;9.410;2023-12-22T06:35:44;96943.94;;;7.13;82.93
9187;BME280;7273;48.902;9.410;2023-12-22T06:38:10;96943.63;;;7.20;82.86
9187;BME280;7273;48.902;9.410;2023-12-22T06:40:36;96946.59;;;7.18;83.19
9187;BME280;7273;48.902;9.410;2023-12-22T06:43:03;96944.69;;;7.19;83.40
9187;BME280;7273;48.902;9.410;2023-12-22T06:45:29;96943.66;;;7.15;84.08
9187;BME280;7273;48.902;9.410;2023-12-22T06:47:55;96939.91;;;7.11;84.65
9187;BME280;7273;48.902;9.410;2023-12-22T06:50:20;96952.88;;;7.09;84.73
9187;BME280;7273;48.902;9.410;2023-12-22T06:52:46;96945.59;;;7.09;84.69
9187;BME280;7273;48.902;9.410;2023-12-22T06:55:11;96955.28;;;7.10;84.71
9187;BME280;7273;48.902;9.410;2023-12-22T06:57:37;96960.34;;;7.12;84.26
9187;BME280;7273;48.902;9.410;2023-12-22T07:00:03;96960.31;;;7.17;82.66
9187;BME280;7273;48.902;9.410;2023-12-22T07:02:29;96974.25;;;7.19;83.03
9187;BME280;7273;48.902;9.410;2023-12-22T07:07:50;96946.22;;;7.30;80.38
9187;BME280;7273;48.902;9.410;2023-12-22T07:10:16;96991.09;;;7.34;80.18
9187;BME280;7273;48.902;9.410;2023-12-22T07:12:41;96988.09;;;7.36;79.62
9187;BME280;7273;48.902;9.410;2023-12-22T07:15:07;96983.53;;;7.36;79.55
9187;BME280;7273;48.902;9.410;2023-12-22T07:17:33;97001.50;;;7.41;79.92
9187;BME280;7273;48.902;9.410;2023-12-22T07:19:58;97000.19;;;7.38;79.99
9187;BME280;7273;48.902;9.410;2023-12-22T07:22:24;96990.22;;;7.39;79.77
9187;BME280;7273;48.902;9.410;2023-12-22T07:24:49;97011.75;;;7.39;80.36
9187;BME280;7273;48.902;9.410;2023-12-22T07:27:17;97005.03;;;7.41;79.13
9187;BME280;7273;48.902;9.410;2023-12-22T07:29:42;97017.38;;;7.42;80.34
9187;BME280;7273;48.902;9.410;2023-12-22T07:32:07;97010.09;;;7.43;81.00
9187;BME280;7273;48.902;9.410;2023-12-22T07:34:33;97014.41;;;7.44;81.03
9187;BME280;7273;48.902;9.410;2023-12-22T07:36:58;97005.03;;;7.41;81.34
9187;BME280;7273;48.902;9.410;2023-12-22T07:39:23;97003.91;;;7.42;81.78
9187;BME280;7273;48.902;9.410;2023-12-22T07:41:49;97007.13;;;7.44;81.18
9187;BME280;7273;48.902;9.410;2023-12-22T07:44:14;97021.16;;;7.41;81.88
9187;BME280;7273;48.902;9.410;2023-12-22T07:46:41;97027.59;;;7.40;82.06
9187;BME280;7273;48.902;9.410;2023-12-22T07:49:06;97030.00;;;7.42;82.46
9187;BME280;7273;48.902;9.410;2023-12-22T07:51:31;97047.75;;;7.43;82.30
9187;BME280;7273;48.902;9.410;2023-12-22T07:53:58;97050.75;;;7.41;82.60
9187;BME280;7273;48.902;9.410;2023-12-22T07:56:23;97056.34;;;7.45;83.26
9187;BME280;7273;48.902;9.410;2023-12-22T07:58:49;97031.34;;;7.44;83.72
9187;BME280;7273;48.902;9.410;2023-12-22T08:01:14;97031.34;;;7.44;83.71
9187;BME280;7273;48.902;9.410;2023-12-22T08:03:43;97043.44;;;7.42;84.23
9187;BME280;7273;48.902;9.410;2023-12-22T08:06:08;97049.63;;;7.42;83.53
9187;BME280;7273;48.902;9.410;2023-12-22T08:08:33;97045.06;;;7.43;83.46
9187;BME280;7273;48.902;9.410;2023-12-22T08:11:00;97043.44;;;7.42;83.25
9187;BME280;7273;48.902;9.410;2023-12-22T08:13:25;97049.34;;;7.44;83.31
9187;BME280;7273;48.902;9.410;2023-12-22T08:15:51;97061.47;;;7.46;83.95
9187;BME280;7273;48.902;9.410;2023-12-22T08:18:16;97062.03;;;7.38;85.31
9187;BME280;7273;48.902;9.410;2023-12-22T08:20:41;97071.19;;;7.37;86.08
9187;BME280;7273;48.902;9.410;2023-12-22T08:23:07;97061.84;;;7.30;86.89
9187;BME280;7273;48.902;9.410;2023-12-22T08:25:33;97062.75;;;7.15;88.23
9187;BME280;7273;48.902;9.410;2023-12-22T08:27:58;97067.31;;;7.15;88.60
9187;BME280;7273;48.902;9.410;2023-12-22T08:30:23;97056.06;;;7.08;89.21
9187;BME280;7273;48.902;9.410;2023-12-22T08:32:50;97048.31;;;7.01;89.55
9187;BME280;7273;48.902;9.410;2023-12-22T08:35:15;97056.72;;;6.90;89.92
9187;BME280;7273;48.902;9.410;2023-12-22T08:37:41;97058.34;;;6.91;91.09
9187;BME280;7273;48.902;9.410;2023-12-22T08:40:07;97040.09;;;6.82;91.77
9187;BME280;7273;48.902;9.410;2023-12-22T08:42:33;97042.25;;;6.86;92.63
9187;BME280;7273;48.902;9.410;2023-12-22T08:44:58;97049.78;;;6.83;93.21
9187;BME280;7273;48.902;9.410;2023-12-22T08:47:24;97040.63;;;6.84;93.82
9187;BME280;7273;48.902;9.410;2023-12-22T08:49:50;97047.91;;;6.84;94.21
9187;BME280;7273;48.902;9.410;2023-12-22T08:52:15;97061.84;;;6.86;94.43
9187;BME280;7273;48.902;9.410;2023-12-22T08:54:41;97065.59;;;6.90;94.01
9187;BME280;7273;48.902;9.410;2023-12-22T08:57:06;97055.66;;;6.91;93.67
9187;BME280;7273;48.902;9.410;2023-12-22T08:59:31;97068.00;;;6.92;94.04
9187;BME280;7273;48.902;9.410;2023-12-22T09:01:57;97065.31;;;6.92;93.90
9187;BME280;7273;48.902;9.410;2023-12-22T09:04:22;97057.50;;;6.95;93.67
9187;BME280;7273;48.902;9.410;2023-12-22T09:06:51;97049.97;;;6.97;93.52
9187;BME280;7273;48.902;9.410;2023-12-22T09:09:17;97062.06;;;6.95;93.74
9187;BME280;7273;48.902;9.410;2023-12-22T09:11:42;97058.84;;;6.93;94.57
9187;BME280;7273;48.902;9.410;2023-12-22T09:14:07;97059.94;;;6.92;94.29
9187;BME280;7273;48.902;9.410;2023-12-22T09:16:35;97058.84;;;6.93;94.20
9187;BME280;7273;48.902;9.410;2023-12-22T09:19:01;97057.25;;;6.92;93.91
9187;BME280;7273;48.902;9.410;2023-12-22T09:21:26;97053.75;;;6.91;93.11
9187;BME280;7273;48.902;9.410;2023-12-22T09:23:58;97045.97;;;6.90;93.24
9187;BME280;7273;48.902;9.410;2023-12-22T09:26:23;97076.09;;;6.87;93.08
9187;BME280;7273;48.902;9.410;2023-12-22T09:28:49;97079.03;;;6.90;93.07
9187;BME280;7273;48.902;9.410;2023-12-22T09:31:14;97082.28;;;6.87;92.96
9187;BME280;7273;48.902;9.410;2023-12-22T09:33:41;97084.16;;;6.87;93.21
9187;BME280;7273;48.902;9.410;2023-12-22T09:36:07;97093.28;;;6.86;93.24
9187;BME280;7273;48.902;9.410;2023-12-22T09:38:33;97088.97;;;6.84;93.64
9187;BME280;7273;48.902;9.410;2023-12-22T09:40:58;97103.78;;;6.82;94.98
9187;BME280;7273;48.902;9.410;2023-12-22T09:43:24;97110.75;;;6.83;96.01
9187;BME280;7273;48.902;9.410;2023-12-22T09:45:50;97102.16;;;6.86;96.35
9187;BME280;7273;48.902;9.410;2023-12-22T09:48:20;97094.91;;;6.87;96.15
9187;BME280;7273;48.902;9.410;2023-12-22T09:50:53;97088.44;;;6.88;95.90
9187;BME280;7273;48.902;9.410;2023-12-22T09:53:20;97091.38;;;6.91;96.10
9187;BME280;7273;48.902;9.410;2023-12-22T09:55:46;97090.31;;;6.92;95.29
9187;BME280;7273;48.902;9.410;2023-12-22T09:58:15;97094.59;;;6.93;94.89
9187;BME280;7273;48.902;9.410;2023-12-22T10:00:42;97088.13;;;6.94;94.77
9187;BME280;7273;48.902;9.410;2023-12-22T10:03:10;97081.41;;;6.97;93.86
9187;BME280;7273;48.902;9.410;2023-12-22T10:05:36;97086.47;;;7.03;92.84
9187;BME280;7273;48.902;9.410;2023-12-22T10:08:02;97071.38;;;7.07;92.08
9187;BME280;7273;48.902;9.410;2023-12-22T10:10:29;97069.75;;;7.11;91.52
9187;BME280;7273;48.902;9.410;2023-12-22T10:12:56;97057.38;;;7.15;90.99
9187;BME280;7273;48.902;9.410;2023-12-22T10:15:22;97058.16;;;7.16;90.35
9187;BME280;7273;48.902;9.410;2023-12-22T10:17:51;97064.84;;;7.23;89.65
9187;BME280;7273;48.902;9.410;2023-12-22T10:20:17;97053.00;;;7.24;88.74
9187;BME280;7273;48.902;9.410;2023-12-22T10:22:42;97054.31;;;7.27;88.53
9187;BME280;7273;48.902;9.410;2023-12-22T10:25:08;97044.38;;;7.27;88.12
9187;BME280;7273;48.902;9.410;2023-12-22T10:27:36;97040.00;;;7.36;86.98
9187;BME280;7273;48.902;9.410;2023-12-22T10:30:02;97026.56;;;7.36;87.54
9187;BME280;7273;48.902;9.410;2023-12-22T10:32:28;97032.69;;;7.42;86.56
9187;BME280;7273;48.902;9.410;2023-12-22T10:34:54;97024.13;;;7.40;86.04
9187;BME280;7273;48.902;9.410;2023-12-22T10:37:20;97024.06;;;7.45;86.53
9187;BME280;7273;48.902;9.410;2023-12-22T10:39:46;97016.50;;;7.47;85.19
9187;BME280;7273;48.902;9.410;2023-12-22T10:42:14;97021.31;;;7.50;84.89
9187;BME280;7273;48.902;9.410;2023-12-22T10:44:40;97016.19;;;7.53;84.76
9187;BME280;7273;48.902;9.410;2023-12-22T10:47:05;97012.44;;;7.54;84.39
9187;BME280;7273;48.902;9.410;2023-12-22T10:49:31;97006.19;;;7.59;84.18
9187;BME280;7273;48.902;9.410;2023-12-22T10:51:57;96997.31;;;7.58;84.24
9187;BME280;7273;48.902;9.410;2023-12-22T10:54:22;96991.66;;;7.60;84.69
9187;BME280;7273;48.902;9.410;2023-12-22T10:56:48;96979.00;;;7.60;84.97
9187;BME280;7273;48.902;9.410;2023-12-22T10:59:18;96986.78;;;7.62;84.32
9187;BME280;7273;48.902;9.410;2023-12-22T11:01:44;96983.25;;;7.66;84.89
9187;BME280;7273;48.902;9.410;2023-12-22T11:04:13;96975.41;;;7.70;84.48
9187;BME280;7273;48.902;9.410;2023-12-22T11:06:41;96974.53;;;7.74;84.48
9187;BME280;7273;48.902;9.410;2023-12-22T11:09:08;96980.75;;;7.75;85.03
9187;BME280;7273;48.902;9.410;2023-12-22T11:11:37;96983.66;;;7.78;85.08
9187;BME280;7273;48.902;9.410;2023-12-22T11:14:04;96975.59;;;7.78;86.01
9187;BME280;7273;48.902;9.410;2023-12-22T11:16:32;96984.19;;;7.80;86.17
9187;BME280;7273;48.902;9.410;2023-12-22T11:18:59;96968.53;;;7.82;86.66
9187;BME280;7273;48.902;9.410;2023-12-22T11:21:25;96957.53;;;7.84;86.29
9187;BME280;7273;48.902;9.410;2023-12-22T11:23:52;96960.69;;;7.86;86.87
9187;BME280;7273;48.902;9.410;2023-12-22T11:26:19;96953.97;;;7.88;86.92
9187;BME280;7273;48.902;9.410;2023-12-22T11:28:46;96948.59;;;7.88;86.92
9187;BME280;7273;48.902;9.410;2023-12-22T11:31:12;96955.22;;;7.96;87.11
9187;BME280;7273;48.902;9.410;2023-12-22T11:33:40;96948.47;;;7.98;87.53
9187;BME280;7273;48.902;9.410;2023-12-22T11:36:08;96933.91;;;7.99;87.35
9187;BME280;7273;48.902;9.410;2023-12-22T11:38:34;96940.03;;;8.05;87.52
9187;BME280;7273;48.902;9.410;2023-12-22T11:41:00;96924.44;;;8.02;86.88
9187;BME280;7273;48.902;9.410;2023-12-22T11:43:27;96915.81;;;8.05;86.94
9187;BME280;7273;48.902;9.410;2023-12-22T11:45:53;96926.59;;;8.05;86.96
9187;BME280;7273;48.902;9.410;2023-12-22T11:48:19;96916.88;;;8.04;87.39
9187;BME280;7273;48.902;9.410;2023-12-22T11:50:46;96911.22;;;8.05;87.05
9187;BME280;7273;48.902;9.410;2023-12-22T11:53:21;96905.03;;;8.05;86.44
9187;BME280;7273;48.902;9.410;2023-12-22T11:58:35;96903.66;;;8.07;85.70
9187;BME280;7273;48.902;9.410;2023-12-22T12:01:02;96890.19;;;8.07;85.16
9187;BME280;7273;48.902;9.410;2023-12-22T12:03:31;96892.06;;;8.07;85.36
9187;BME280;7273;48.902;9.410;2023-12-22T12:06:22;96890.47;;;8.06;84.68
9187;BME280;7273;48.902;9.410;2023-12-22T12:09:00;96886.19;;;8.05;85.39
9187;BME280;7273;48.902;9.410;2023-12-22T12:14:22;96869.00;;;8.01;85.51
9187;BME280;7273;48.902;9.410;2023-12-22T12:16:48;96865.03;;;7.98;85.49
9187;BME280;7273;48.902;9.410;2023-12-22T12:19:14;96862.63;;;7.97;85.58
9187;BME280;7273;48.902;9.410;2023-12-22T12:21:40;96869.31;;;7.99;85.80
9187;BME280;7273;48.902;9.410;2023-12-22T12:24:05;96856.13;;;7.98;86.31
9187;BME280;7273;48.902;9.410;2023-12-22T12:26:33;96842.16;;;7.96;86.09
9187;BME280;7273;48.902;9.410;2023-12-22T12:28:59;96853.44;;;7.98;86.04
9187;BME280;7273;48.902;9.410;2023-12-22T12:31:44;96846.47;;;7.97;85.56
9187;BME280;7273;48.902;9.410;2023-12-22T12:34:10;96846.97;;;7.99;85.77
9187;BME280;7273;48.902;9.410;2023-12-22T12:36:37;96840.56;;;7.95;85.96
9187;BME280;7273;48.902;9.410;2023-12-22T12:39:08;96840.28;;;7.96;86.49
9187;BME280;7273;48.902;9.410;2023-12-22T12:41:36;96842.16;;;7.96;86.38
9187;BME280;7273;48.902;9.410;2023-12-22T12:44:06;96853.78;;;7.91;87.28
9187;BME280;7273;48.902;9.410;2023-12-22T12:46:38;96832.78;;;7.93;87.40
9187;BME280;7273;48.902;9.410;2023-12-22T12:49:09;96836.06;;;7.90;87.51
9187;BME280;7273;48.902;9.410;2023-12-22T12:51:39;96825.00;;;7.92;87.85
9187;BME280;7273;48.902;9.410;2023-12-22T12:54:09;96828.84;;;7.86;87.59
9187;BME280;7273;48.902;9.410;2023-12-22T12:56:43;96827.81;;;7.82;87.73
9187;BME280;7273;48.902;9.410;2023-12-22T12:59:09;96827.00;;;7.81;88.43
9187;BME280;7273;48.902;9.410;2023-12-22T13:01:42;96814.13;;;7.78;87.88
9187;BME280;7273;48.902;9.410;2023-12-22T13:04:07;96820.97;;;7.71;89.14
9187;BME280;7273;48.902;9.410;2023-12-22T13:06:33;96827.44;;;7.70;90.00
9187;BME280;7273;48.902;9.410;2023-12-22T13:08:59;96814.78;;;7.70;89.58
9187;BME280;7273;48.902;9.410;2023-12-22T13:11:32;96821.03;;;7.66;90.32
9187;BME280;7273;48.902;9.410;2023-12-22T13:13:58;96812.38;;;7.69;89.74
9187;BME280;7273;48.902;9.410;2023-12-22T13:16:24;96831.22;;;7.69;90.62
9187;BME280;7273;48.902;9.410;2023-12-22T13:18:56;96832.53;;;7.71;91.12
9187;BME280;7273;48.902;9.410;2023-12-22T13:21:23;96837.50;;;7.83;92.37
9187;BME280;7273;48.902;9.410;2023-12-22T13:24:13;96832.78;;;7.93;93.05
9187;BME280;7273;48.902;9.410;2023-12-22T13:26:39;96823.75;;;8.03;93.32
9187;BME280;7273;48.902;9.410;2023-12-22T13:29:06;96829.09;;;8.08;92.88
9187;BME280;7273;48.902;9.410;2023-12-22T13:31:32;96822.75;;;8.17;94.02
9187;BME280;7273;48.902;9.410;2023-12-22T13:33:58;96820.28;;;8.21;93.77
9187;BME280;7273;48.902;9.410;2023-12-22T13:36:24;96829.38;;;8.25;94.57